Currently 46°F in San Jacinto, California, USA
46°F
47°F / 46°F
calm
0.00"
Sunday, January 22, 2017 4:16 AM PST

San Jacinto, California Weather Summary
Last 36 Hours

Temperature Winds Hourly Humidity Dewpoint
Time Report Norm Report Norm Max Gusts Precip. Rpt. Norm Rpt. Norm Pressure
1Sun 04:16 AM  45.9°F  44°F  calm  1 mph  none  0.00"  89%  78%  43°F  37°F  30.24"
Sun 04:00 AM  45.9°F  44°F  calm  1 mph  5 mph  0.00"  88%  78%  42°F  37°F  30.24"
3Sun 03:00 AM  45.9°F  45°F  calm  1 mph  6 mph  0.00"  85%  77%  41°F  37°F  30.23"
Sun 02:00 AM  46.2°F  46°F  2 mph E  1 mph  6 mph  0.00"  84%  75%  41°F  38°F  30.23"
Sun 01:00 AM  46.9°F  46°F  calm  calm  6 mph  0.00"  79%  74%  40°F  38°F  30.24"
2Sun 12:00 AM  47.1°F  48°F  calm  calm  9 mph  0.00"  80%  72%  41°F  39°F  30.26"
Sat 11:00 PM  47.1°F  49°F  calm  1 mph  8 mph  0.00"  81%  69%  41°F  39°F  30.26"
Sat 10:00 PM  47.1°F  50°F  3 mph E  calm  6 mph  0.00"  81%  67%  41°F  39°F  30.23"
Sat 09:00 PM  47.8°F  51°F  calm  calm  8 mph  0.00"  79%  65%  41°F  39°F  30.24"
Sat 08:00 PM  48.7°F  53°F  calm  1 mph  11 mph  0.00"  78%  60%  42°F  39°F  30.21"
Sat 07:00 PM  49.5°F  55°F  7 mph SE  1 mph  11 mph  0.00"  78%  56%  43°F  39°F  30.17"
Sat 06:00 PM  50.7°F  58°F  1 mph SE  1 mph  11 mph  0.00"  74%  53%  42°F  40°F  30.13"
Sat 05:00 PM  52.5°F  61°F  2 mph S  2 mph  11 mph  0.00"  68%  45%  42°F  39°F  30.10"
Sat 04:00 PM  54.5°F  64°F  4 mph E  2 mph  3 mph  0.00"  57%  38%  39°F  37°F  30.10"
Sat 03:00 PM  53.6°F  65°F  1 mph NW  2 mph  10 mph  0.00"  60%  37%  39°F  37°F  30.09"
Sat 02:00 PM  55.0°F  65°F  6 mph W  2 mph  10 mph  0.00"  56%  37%  39°F  37°F  30.08"
Sat 01:00 PM  53.2°F  64°F  1 mph W  2 mph  11 mph  0.00"  62%  39%  40°F  37°F  30.07"
Sat 12:00 PM  52.5°F  62°F  2 mph SW  1 mph  7 mph  0.00"  63%  42%  40°F  38°F  30.06"
Sat 11:00 AM  52.3°F  60°F  calm  1 mph  7 mph  0.00"  64%  47%  40°F  39°F  30.06"
Sat 10:00 AM  48.7°F  55°F  2 mph NW  1 mph  11 mph  0.00"  74%  56%  40°F  39°F  30.03"
Sat 09:00 AM  46.9°F  51°F  8 mph NW  calm  9 mph  0.00"  77%  66%  40°F  39°F  30.00"
Sat 08:00 AM  45.5°F  45°F  4 mph NW  calm  8 mph  0.00"  81%  75%  40°F  38°F  29.95"
Sat 07:00 AM  45.0°F  43°F  3 mph N  calm  8 mph  0.00"  85%  80%  41°F  37°F  29.91"
Sat 06:00 AM  44.8°F  43°F  3 mph N  calm  15 mph  0.00"  83%  80%  40°F  37°F  29.86"
Sat 05:00 AM  45.1°F  43°F  9 mph NW  calm  18 mph  0.00"  81%  79%  39°F  37°F  29.83"
Sat 04:00 AM  44.8°F  44°F  4 mph NW  calm  17 mph  0.00"  82%  78%  39°F  37°F  29.79"
Sat 03:00 AM  46.0°F  45°F  8 mph W  calm  18 mph  0.00"  76%  77%  39°F  38°F  29.77"
Sat 02:00 AM  46.8°F  46°F  5 mph W  calm  18 mph  0.00"  72%  76%  38°F  38°F  29.75"
Sat 01:00 AM  46.6°F  46°F  calm  calm  9 mph  0.00"  81%  75%  41°F  39°F  29.72"
Sat 12:00 AM  47.5°F  48°F  calm  calm  16 mph  0.00"  83%  71%  42°F  38°F  29.69"
Fri 11:00 PM  47.7°F  49°F  3 mph SW  calm  8 mph  0.00"  87%  69%  44°F  39°F  29.69"
Fri 10:00 PM  47.7°F  50°F  1 mph SW  calm  8 mph  0.00"  87%  67%  44°F  39°F  29.68"
Fri 09:00 PM  48.0°F  52°F  3 mph SW  calm  10 mph  0.00"  89%  64%  45°F  39°F  29.67"
Fri 08:00 PM  48.7°F  53°F  7 mph W  1 mph  11 mph  0.00"  85%  60%  44°F  39°F  29.66"
Fri 07:00 PM  48.0°F  56°F  calm  1 mph  9 mph  0.00"  91%  57%  45°F  40°F  29.63"
Fri 06:00 PM  49.3°F  58°F  1 mph SW  1 mph  13 mph  0.02"  89%  53%  46°F  40°F  29.60"
Fri 05:00 PM  51.1°F  62°F  5 mph SW  1 mph  13 mph  0.01"  89%  45%  48°F  39°F  29.58"

  1. Current weather data. No green row appears if the current weather data is also the high or low for the current day.
  2. High temperature for the current day.
  3. Low temperature for the current day.

The San Jacinto, California weather pages are a service of WeatherCurrents. San Jacinto is located in the heart of the San Jacinto Valley, near Hemet, the Soboba Casino, and at the foot of the San Jacinto Mountains.
Copyright ©Sun Jan 22 04:15:42 PST 2017  WeatherCurrents. All rights reserved. - Submit questions and comments - Privacy Policy

This page automatically refreshes every 10 minutes.